sensor_id;sensor_type;location;lat;lon;timestamp;temperature;humidity
27376;DHT22;14844;51.302;6.354;2023-06-04T00:01:54;11.30;91.00
27376;DHT22;14844;51.302;6.354;2023-06-04T00:04:20;11.30;90.90
27376;DHT22;14844;51.302;6.354;2023-06-04T00:06:45;11.20;91.30
27376;DHT22;14844;51.302;6.354;2023-06-04T00:09:10;11.10;91.60
27376;DHT22;14844;51.302;6.354;2023-06-04T00:11:36;11.00;92.00
27376;DHT22;14844;51.302;6.354;2023-06-04T00:14:02;10.90;92.40
27376;DHT22;14844;51.302;6.354;2023-06-04T00:16:27;11.00;91.50
27376;DHT22;14844;51.302;6.354;2023-06-04T00:18:53;11.00;91.80
27376;DHT22;14844;51.302;6.354;2023-06-04T00:21:18;11.00;91.00
27376;DHT22;14844;51.302;6.354;2023-06-04T00:23:44;11.10;92.00
27376;DHT22;14844;51.302;6.354;2023-06-04T00:26:09;11.10;92.00
27376;DHT22;14844;51.302;6.354;2023-06-04T00:28:35;11.10;91.80
27376;DHT22;14844;51.302;6.354;2023-06-04T00:31:02;11.00;92.00
27376;DHT22;14844;51.302;6.354;2023-06-04T00:33:27;11.00;92.10
27376;DHT22;14844;51.302;6.354;2023-06-04T00:35:53;11.00;92.40
27376;DHT22;14844;51.302;6.354;2023-06-04T00:38:18;11.00;92.50
27376;DHT22;14844;51.302;6.354;2023-06-04T00:40:44;10.90;92.70
27376;DHT22;14844;51.302;6.354;2023-06-04T00:43:09;11.00;91.80
27376;DHT22;14844;51.302;6.354;2023-06-04T00:45:35;10.90;92.20
27376;DHT22;14844;51.302;6.354;2023-06-04T00:48:01;10.80;92.00
27376;DHT22;14844;51.302;6.354;2023-06-04T00:50:27;10.80;92.70
27376;DHT22;14844;51.302;6.354;2023-06-04T00:52:52;10.90;92.60
27376;DHT22;14844;51.302;6.354;2023-06-04T00:55:19;10.90;92.90
27376;DHT22;14844;51.302;6.354;2023-06-04T00:57:44;10.90;93.60
27376;DHT22;14844;51.302;6.354;2023-06-04T01:00:10;10.80;93.60
27376;DHT22;14844;51.302;6.354;2023-06-04T01:02:37;10.70;94.50
27376;DHT22;14844;51.302;6.354;2023-06-04T01:07:47;10.60;94.10
27376;DHT22;14844;51.302;6.354;2023-06-04T01:10:13;10.50;94.10
27376;DHT22;14844;51.302;6.354;2023-06-04T01:12:40;10.60;93.90
27376;DHT22;14844;51.302;6.354;2023-06-04T01:15:05;10.60;93.90
27376;DHT22;14844;51.302;6.354;2023-06-04T01:25:04;10.60;94.20
27376;DHT22;14844;51.302;6.354;2023-06-04T01:27:29;10.60;94.40
27376;DHT22;14844;51.302;6.354;2023-06-04T01:29:55;10.60;94.80
27376;DHT22;14844;51.302;6.354;2023-06-04T01:32:23;10.60;95.00
27376;DHT22;14844;51.302;6.354;2023-06-04T01:34:48;10.60;95.30
27376;DHT22;14844;51.302;6.354;2023-06-04T01:37:14;10.60;95.60
27376;DHT22;14844;51.302;6.354;2023-06-04T01:39:41;10.50;95.60
27376;DHT22;14844;51.302;6.354;2023-06-04T01:42:07;10.50;96.20
27376;DHT22;14844;51.302;6.354;2023-06-04T01:44:33;10.50;96.90
27376;DHT22;14844;51.302;6.354;2023-06-04T01:46:58;10.40;97.30
27376;DHT22;14844;51.302;6.354;2023-06-04T01:49:23;10.40;97.80
27376;DHT22;14844;51.302;6.354;2023-06-04T01:51:49;10.40;98.80
27376;DHT22;14844;51.302;6.354;2023-06-04T01:54:14;10.30;99.40
27376;DHT22;14844;51.302;6.354;2023-06-04T01:56:41;10.20;99.80
27376;DHT22;14844;51.302;6.354;2023-06-04T01:59:07;10.10;99.90
27376;DHT22;14844;51.302;6.354;2023-06-04T02:01:33;10.00;99.90
27376;DHT22;14844;51.302;6.354;2023-06-04T02:03:58;10.00;99.90
27376;DHT22;14844;51.302;6.354;2023-06-04T02:06:23;10.00;99.90
27376;DHT22;14844;51.302;6.354;2023-06-04T02:08:50;9.90;99.90
27376;DHT22;14844;51.302;6.354;2023-06-04T02:11:15;9.90;99.90
27376;DHT22;14844;51.302;6.354;2023-06-04T02:13:41;9.90;99.90
27376;DHT22;14844;51.302;6.354;2023-06-04T02:16:06;9.90;99.90
27376;DHT22;14844;51.302;6.354;2023-06-04T02:18:32;9.80;99.90
27376;DHT22;14844;51.302;6.354;2023-06-04T02:20:57;9.80;99.90
27376;DHT22;14844;51.302;6.354;2023-06-04T02:23:23;9.80;99.90
27376;DHT22;14844;51.302;6.354;2023-06-04T02:25:49;9.70;99.90
27376;DHT22;14844;51.302;6.354;2023-06-04T02:28:15;9.60;99.90
27376;DHT22;14844;51.302;6.354;2023-06-04T02:30:40;9.60;99.90
27376;DHT22;14844;51.302;6.354;2023-06-04T02:33:06;9.60;99.90
27376;DHT22;14844;51.302;6.354;2023-06-04T02:35:35;9.70;99.90
27376;DHT22;14844;51.302;6.354;2023-06-04T02:38:00;9.70;99.90
27376;DHT22;14844;51.302;6.354;2023-06-04T02:40:26;9.60;99.90
27376;DHT22;14844;51.302;6.354;2023-06-04T02:42:52;9.60;99.90
27376;DHT22;14844;51.302;6.354;2023-06-04T02:45:17;9.30;99.90
27376;DHT22;14844;51.302;6.354;2023-06-04T02:47:43;9.20;99.90
27376;DHT22;14844;51.302;6.354;2023-06-04T02:50:08;9.20;99.90
27376;DHT22;14844;51.302;6.354;2023-06-04T02:52:34;9.30;99.90
27376;DHT22;14844;51.302;6.354;2023-06-04T02:55:03;9.40;99.90
27376;DHT22;14844;51.302;6.354;2023-06-04T02:57:29;9.30;99.90
27376;DHT22;14844;51.302;6.354;2023-06-04T02:59:55;9.30;99.90
27376;DHT22;14844;51.302;6.354;2023-06-04T03:02:21;9.20;99.90
27376;DHT22;14844;51.302;6.354;2023-06-04T03:04:46;9.20;99.90
27376;DHT22;14844;51.302;6.354;2023-06-04T03:07:16;9.20;99.90
27376;DHT22;14844;51.302;6.354;2023-06-04T03:09:46;9.20;99.90
27376;DHT22;14844;51.302;6.354;2023-06-04T03:12:11;9.20;99.90
27376;DHT22;14844;51.302;6.354;2023-06-04T03:14:37;9.20;99.90
27376;DHT22;14844;51.302;6.354;2023-06-04T03:17:03;9.20;99.90
27376;DHT22;14844;51.302;6.354;2023-06-04T03:19:33;9.10;99.90
27376;DHT22;14844;51.302;6.354;2023-06-04T03:21:59;9.10;99.90
27376;DHT22;14844;51.302;6.354;2023-06-04T03:24:26;9.10;99.90
27376;DHT22;14844;51.302;6.354;2023-06-04T03:26:51;9.00;99.90
27376;DHT22;14844;51.302;6.354;2023-06-04T03:29:17;9.00;99.90
27376;DHT22;14844;51.302;6.354;2023-06-04T03:31:43;9.00;99.90
27376;DHT22;14844;51.302;6.354;2023-06-04T03:34:09;9.10;99.90
27376;DHT22;14844;51.302;6.354;2023-06-04T03:36:35;9.10;99.90
27376;DHT22;14844;51.302;6.354;2023-06-04T03:39:03;9.20;99.90
27376;DHT22;14844;51.302;6.354;2023-06-04T03:41:30;9.20;99.90
27376;DHT22;14844;51.302;6.354;2023-06-04T03:43:55;9.20;99.90
27376;DHT22;14844;51.302;6.354;2023-06-04T03:46:20;9.20;99.90
27376;DHT22;14844;51.302;6.354;2023-06-04T03:48:46;9.20;99.90
27376;DHT22;14844;51.302;6.354;2023-06-04T03:51:11;9.20;99.90
27376;DHT22;14844;51.302;6.354;2023-06-04T03:53:37;9.20;99.90
27376;DHT22;14844;51.302;6.354;2023-06-04T03:56:02;9.30;99.90
27376;DHT22;14844;51.302;6.354;2023-06-04T03:58:28;9.20;99.90
27376;DHT22;14844;51.302;6.354;2023-06-04T04:00:53;9.30;99.90
27376;DHT22;14844;51.302;6.354;2023-06-04T04:03:19;9.60;99.90
27376;DHT22;14844;51.302;6.354;2023-06-04T04:05:45;10.00;99.90
27376;DHT22;14844;51.302;6.354;2023-06-04T04:08:10;10.50;99.90
27376;DHT22;14844;51.302;6.354;2023-06-04T04:10:36;10.80;99.90
27376;DHT22;14844;51.302;6.354;2023-06-04T04:13:01;11.00;99.90
27376;DHT22;14844;51.302;6.354;2023-06-04T04:15:27;11.10;99.90
27376;DHT22;14844;51.302;6.354;2023-06-04T04:17:52;11.10;99.90
27376;DHT22;14844;51.302;6.354;2023-06-04T04:20:18;11.10;99.90
27376;DHT22;14844;51.302;6.354;2023-06-04T04:22:44;11.00;99.90
27376;DHT22;14844;51.302;6.354;2023-06-04T04:25:09;10.80;99.90
27376;DHT22;14844;51.302;6.354;2023-06-04T04:27:34;10.70;99.90
27376;DHT22;14844;51.302;6.354;2023-06-04T04:30:04;10.60;99.90
27376;DHT22;14844;51.302;6.354;2023-06-04T04:32:30;10.50;99.90
27376;DHT22;14844;51.302;6.354;2023-06-04T04:34:56;10.50;99.90
27376;DHT22;14844;51.302;6.354;2023-06-04T04:37:22;10.40;99.90
27376;DHT22;14844;51.302;6.354;2023-06-04T04:39:48;10.50;99.90
27376;DHT22;14844;51.302;6.354;2023-06-04T04:42:17;10.50;99.90
27376;DHT22;14844;51.302;6.354;2023-06-04T04:44:42;10.60;99.90
27376;DHT22;14844;51.302;6.354;2023-06-04T04:47:13;10.60;99.90
27376;DHT22;14844;51.302;6.354;2023-06-04T04:49:38;10.70;99.90
27376;DHT22;14844;51.302;6.354;2023-06-04T04:52:04;10.80;99.90
27376;DHT22;14844;51.302;6.354;2023-06-04T04:54:29;10.90;99.90
27376;DHT22;14844;51.302;6.354;2023-06-04T04:56:54;11.00;99.90
27376;DHT22;14844;51.302;6.354;2023-06-04T04:59:20;11.10;99.90
27376;DHT22;14844;51.302;6.354;2023-06-04T05:01:45;11.20;99.90
27376;DHT22;14844;51.302;6.354;2023-06-04T05:04:11;11.30;99.90
27376;DHT22;14844;51.302;6.354;2023-06-04T05:06:37;11.40;99.90
27376;DHT22;14844;51.302;6.354;2023-06-04T05:09:02;11.50;99.90
27376;DHT22;14844;51.302;6.354;2023-06-04T05:11:27;11.70;99.90
27376;DHT22;14844;51.302;6.354;2023-06-04T05:13:53;11.80;99.90
27376;DHT22;14844;51.302;6.354;2023-06-04T05:16:18;11.90;99.90
27376;DHT22;14844;51.302;6.354;2023-06-04T05:18:45;11.90;99.90
27376;DHT22;14844;51.302;6.354;2023-06-04T05:21:11;12.00;99.90
27376;DHT22;14844;51.302;6.354;2023-06-04T05:23:38;12.10;99.90
27376;DHT22;14844;51.302;6.354;2023-06-04T05:26:04;12.30;99.90
27376;DHT22;14844;51.302;6.354;2023-06-04T05:28:30;12.40;99.90
27376;DHT22;14844;51.302;6.354;2023-06-04T05:30:58;12.50;99.90
27376;DHT22;14844;51.302;6.354;2023-06-04T05:33:26;12.70;99.90
27376;DHT22;14844;51.302;6.354;2023-06-04T05:35:52;12.80;99.90
27376;DHT22;14844;51.302;6.354;2023-06-04T05:38:19;12.90;99.90
27376;DHT22;14844;51.302;6.354;2023-06-04T05:40:45;13.10;99.90
27376;DHT22;14844;51.302;6.354;2023-06-04T05:43:11;13.20;99.90
27376;DHT22;14844;51.302;6.354;2023-06-04T05:45:36;13.30;99.90
27376;DHT22;14844;51.302;6.354;2023-06-04T05:48:02;13.40;99.90
27376;DHT22;14844;51.302;6.354;2023-06-04T05:50:28;13.50;99.90
27376;DHT22;14844;51.302;6.354;2023-06-04T05:52:53;13.60;99.90
27376;DHT22;14844;51.302;6.354;2023-06-04T05:55:39;13.60;99.90
27376;DHT22;14844;51.302;6.354;2023-06-04T05:58:05;13.70;99.90
27376;DHT22;14844;51.302;6.354;2023-06-04T06:00:30;13.80;99.90
27376;DHT22;14844;51.302;6.354;2023-06-04T06:02:56;14.00;99.90
27376;DHT22;14844;51.302;6.354;2023-06-04T06:05:21;14.20;99.90
27376;DHT22;14844;51.302;6.354;2023-06-04T06:07:47;14.30;99.90
27376;DHT22;14844;51.302;6.354;2023-06-04T06:10:12;14.40;99.90
27376;DHT22;14844;51.302;6.354;2023-06-04T06:12:38;14.50;99.90
27376;DHT22;14844;51.302;6.354;2023-06-04T06:15:04;14.60;99.90
27376;DHT22;14844;51.302;6.354;2023-06-04T06:17:30;14.70;99.90
27376;DHT22;14844;51.302;6.354;2023-06-04T06:19:57;14.90;99.90
27376;DHT22;14844;51.302;6.354;2023-06-04T06:22:23;15.10;99.90
27376;DHT22;14844;51.302;6.354;2023-06-04T06:24:48;15.30;99.90
27376;DHT22;14844;51.302;6.354;2023-06-04T06:27:14;15.50;99.90
27376;DHT22;14844;51.302;6.354;2023-06-04T06:29:40;15.60;99.90
27376;DHT22;14844;51.302;6.354;2023-06-04T06:32:07;15.80;99.90
27376;DHT22;14844;51.302;6.354;2023-06-04T06:34:32;15.70;99.90
27376;DHT22;14844;51.302;6.354;2023-06-04T06:36:58;15.70;99.90
27376;DHT22;14844;51.302;6.354;2023-06-04T06:39:23;15.80;99.90
27376;DHT22;14844;51.302;6.354;2023-06-04T06:41:49;15.90;99.40
27376;DHT22;14844;51.302;6.354;2023-06-04T06:44:15;15.90;99.20
27376;DHT22;14844;51.302;6.354;2023-06-04T06:46:40;16.00;99.00
27376;DHT22;14844;51.302;6.354;2023-06-04T06:49:05;16.10;99.30
27376;DHT22;14844;51.302;6.354;2023-06-04T06:51:31;16.30;99.20
27376;DHT22;14844;51.302;6.354;2023-06-04T06:53:56;16.40;98.70
27376;DHT22;14844;51.302;6.354;2023-06-04T06:56:22;16.60;98.90
27376;DHT22;14844;51.302;6.354;2023-06-04T06:58:47;16.70;98.60
27376;DHT22;14844;51.302;6.354;2023-06-04T07:01:13;16.80;98.30
27376;DHT22;14844;51.302;6.354;2023-06-04T07:03:39;16.90;97.90
27376;DHT22;14844;51.302;6.354;2023-06-04T07:06:10;17.00;97.10
27376;DHT22;14844;51.302;6.354;2023-06-04T07:08:36;17.20;97.50
27376;DHT22;14844;51.302;6.354;2023-06-04T07:11:02;17.30;96.80
27376;DHT22;14844;51.302;6.354;2023-06-04T07:13:28;17.50;96.60
27376;DHT22;14844;51.302;6.354;2023-06-04T07:15:54;17.60;96.60
27376;DHT22;14844;51.302;6.354;2023-06-04T07:18:19;17.70;96.40
27376;DHT22;14844;51.302;6.354;2023-06-04T07:20:45;17.70;95.20
27376;DHT22;14844;51.302;6.354;2023-06-04T07:23:10;17.80;95.70
27376;DHT22;14844;51.302;6.354;2023-06-04T07:25:36;17.90;94.30
27376;DHT22;14844;51.302;6.354;2023-06-04T07:28:01;18.10;94.60
27376;DHT22;14844;51.302;6.354;2023-06-04T07:30:29;18.10;94.00
27376;DHT22;14844;51.302;6.354;2023-06-04T07:32:55;18.10;94.30
27376;DHT22;14844;51.302;6.354;2023-06-04T07:35:21;18.10;93.50
27376;DHT22;14844;51.302;6.354;2023-06-04T07:37:46;18.20;93.80
27376;DHT22;14844;51.302;6.354;2023-06-04T07:40:14;18.40;93.90
27376;DHT22;14844;51.302;6.354;2023-06-04T07:42:41;18.50;93.30
27376;DHT22;14844;51.302;6.354;2023-06-04T07:45:07;18.70;93.60
27376;DHT22;14844;51.302;6.354;2023-06-04T07:47:33;18.80;92.60
27376;DHT22;14844;51.302;6.354;2023-06-04T07:49:59;18.80;92.40
27376;DHT22;14844;51.302;6.354;2023-06-04T07:52:25;18.90;91.80
27376;DHT22;14844;51.302;6.354;2023-06-04T07:54:53;19.10;90.70
27376;DHT22;14844;51.302;6.354;2023-06-04T07:57:21;19.30;91.20
27376;DHT22;14844;51.302;6.354;2023-06-04T07:59:52;19.50;91.20
27376;DHT22;14844;51.302;6.354;2023-06-04T08:02:18;19.60;89.80
27376;DHT22;14844;51.302;6.354;2023-06-04T08:04:44;19.80;89.10
27376;DHT22;14844;51.302;6.354;2023-06-04T08:07:11;19.90;86.90
27376;DHT22;14844;51.302;6.354;2023-06-04T08:09:37;20.00;86.50
27376;DHT22;14844;51.302;6.354;2023-06-04T08:12:05;20.10;85.80
27376;DHT22;14844;51.302;6.354;2023-06-04T08:14:30;20.20;84.80
27376;DHT22;14844;51.302;6.354;2023-06-04T08:16:57;20.20;82.90
27376;DHT22;14844;51.302;6.354;2023-06-04T08:19:23;20.30;81.50
27376;DHT22;14844;51.302;6.354;2023-06-04T08:21:49;20.30;82.50
27376;DHT22;14844;51.302;6.354;2023-06-04T08:24:14;20.30;81.50
27376;DHT22;14844;51.302;6.354;2023-06-04T08:26:40;20.40;81.60
27376;DHT22;14844;51.302;6.354;2023-06-04T08:29:06;20.50;81.50
27376;DHT22;14844;51.302;6.354;2023-06-04T08:31:32;20.70;79.70
27376;DHT22;14844;51.302;6.354;2023-06-04T08:33:57;20.70;78.90
27376;DHT22;14844;51.302;6.354;2023-06-04T08:36:23;21.00;77.90
27376;DHT22;14844;51.302;6.354;2023-06-04T08:38:48;21.10;78.70
27376;DHT22;14844;51.302;6.354;2023-06-04T08:41:20;21.20;78.10
27376;DHT22;14844;51.302;6.354;2023-06-04T08:43:47;21.20;74.50
27376;DHT22;14844;51.302;6.354;2023-06-04T08:46:15;21.30;76.30
27376;DHT22;14844;51.302;6.354;2023-06-04T08:48:41;21.30;74.80
27376;DHT22;14844;51.302;6.354;2023-06-04T08:51:06;21.30;74.00
27376;DHT22;14844;51.302;6.354;2023-06-04T08:53:36;21.40;73.80
27376;DHT22;14844;51.302;6.354;2023-06-04T08:56:04;21.40;76.60
27376;DHT22;14844;51.302;6.354;2023-06-04T08:58:32;21.60;71.20
27376;DHT22;14844;51.302;6.354;2023-06-04T09:01:01;21.80;70.80
27376;DHT22;14844;51.302;6.354;2023-06-04T09:03:26;21.80;70.50
27376;DHT22;14844;51.302;6.354;2023-06-04T09:05:53;22.00;68.20
27376;DHT22;14844;51.302;6.354;2023-06-04T09:08:19;21.90;67.80
27376;DHT22;14844;51.302;6.354;2023-06-04T09:10:46;22.00;67.80
27376;DHT22;14844;51.302;6.354;2023-06-04T09:13:17;22.20;66.50
27376;DHT22;14844;51.302;6.354;2023-06-04T09:15:43;22.30;65.40
27376;DHT22;14844;51.302;6.354;2023-06-04T09:18:08;22.40;65.80
27376;DHT22;14844;51.302;6.354;2023-06-04T09:20:34;22.40;63.80
27376;DHT22;14844;51.302;6.354;2023-06-04T09:22:59;22.40;64.60
27376;DHT22;14844;51.302;6.354;2023-06-04T09:25:25;22.30;66.20
27376;DHT22;14844;51.302;6.354;2023-06-04T09:27:52;22.30;68.30
27376;DHT22;14844;51.302;6.354;2023-06-04T09:30:17;22.30;67.00
27376;DHT22;14844;51.302;6.354;2023-06-04T09:32:43;22.20;66.80
27376;DHT22;14844;51.302;6.354;2023-06-04T09:37:34;22.30;65.40
27376;DHT22;14844;51.302;6.354;2023-06-04T09:40:00;22.50;66.40
27376;DHT22;14844;51.302;6.354;2023-06-04T09:42:25;22.40;64.30
27376;DHT22;14844;51.302;6.354;2023-06-04T09:44:51;22.40;64.50
27376;DHT22;14844;51.302;6.354;2023-06-04T09:47:17;22.40;63.10
27376;DHT22;14844;51.302;6.354;2023-06-04T09:49:46;22.40;63.80
27376;DHT22;14844;51.302;6.354;2023-06-04T09:52:12;22.40;65.80
27376;DHT22;14844;51.302;6.354;2023-06-04T09:54:41;22.40;62.20
27376;DHT22;14844;51.302;6.354;2023-06-04T09:57:13;22.40;60.00
27376;DHT22;14844;51.302;6.354;2023-06-04T09:59:41;22.60;58.20
27376;DHT22;14844;51.302;6.354;2023-06-04T10:02:08;22.70;58.50
27376;DHT22;14844;51.302;6.354;2023-06-04T10:04:34;22.80;57.80
27376;DHT22;14844;51.302;6.354;2023-06-04T10:07:00;22.90;56.00
27376;DHT22;14844;51.302;6.354;2023-06-04T10:09:27;23.10;58.00
27376;DHT22;14844;51.302;6.354;2023-06-04T10:11:55;23.00;56.90
27376;DHT22;14844;51.302;6.354;2023-06-04T10:14:22;22.90;57.00
27376;DHT22;14844;51.302;6.354;2023-06-04T10:16:51;23.00;56.40
27376;DHT22;14844;51.302;6.354;2023-06-04T10:19:17;22.90;56.10
27376;DHT22;14844;51.302;6.354;2023-06-04T10:21:43;23.10;56.40
27376;DHT22;14844;51.302;6.354;2023-06-04T10:24:08;23.20;56.60
27376;DHT22;14844;51.302;6.354;2023-06-04T10:26:34;23.30;56.40
27376;DHT22;14844;51.302;6.354;2023-06-04T10:29:01;23.30;54.80
27376;DHT22;14844;51.302;6.354;2023-06-04T10:31:32;23.50;56.20
27376;DHT22;14844;51.302;6.354;2023-06-04T10:34:01;23.50;53.40
27376;DHT22;14844;51.302;6.354;2023-06-04T10:36:28;23.50;54.90
27376;DHT22;14844;51.302;6.354;2023-06-04T10:38:54;23.20;55.40
27376;DHT22;14844;51.302;6.354;2023-06-04T10:41:21;23.20;53.90
27376;DHT22;14844;51.302;6.354;2023-06-04T10:43:48;23.00;52.80
27376;DHT22;14844;51.302;6.354;2023-06-04T10:46:17;23.00;52.10
27376;DHT22;14844;51.302;6.354;2023-06-04T10:48:46;23.20;53.60
27376;DHT22;14844;51.302;6.354;2023-06-04T10:51:13;23.30;55.50
27376;DHT22;14844;51.302;6.354;2023-06-04T10:53:38;23.30;53.40
27376;DHT22;14844;51.302;6.354;2023-06-04T10:56:04;23.30;53.50
27376;DHT22;14844;51.302;6.354;2023-06-04T10:58:33;23.40;53.50
27376;DHT22;14844;51.302;6.354;2023-06-04T11:00:59;23.50;52.50
27376;DHT22;14844;51.302;6.354;2023-06-04T11:03:34;23.40;51.70
27376;DHT22;14844;51.302;6.354;2023-06-04T11:06:01;23.50;50.10
27376;DHT22;14844;51.302;6.354;2023-06-04T11:08:27;23.40;50.90
27376;DHT22;14844;51.302;6.354;2023-06-04T11:10:56;23.40;52.20
27376;DHT22;14844;51.302;6.354;2023-06-04T11:13:25;23.40;50.20
27376;DHT22;14844;51.302;6.354;2023-06-04T11:15:53;23.40;50.50
27376;DHT22;14844;51.302;6.354;2023-06-04T11:18:19;23.50;52.00
27376;DHT22;14844;51.302;6.354;2023-06-04T11:20:49;23.50;51.90
27376;DHT22;14844;51.302;6.354;2023-06-04T11:23:15;23.50;51.10
27376;DHT22;14844;51.302;6.354;2023-06-04T11:25:41;23.50;50.40
27376;DHT22;14844;51.302;6.354;2023-06-04T11:28:14;23.50;49.80
27376;DHT22;14844;51.302;6.354;2023-06-04T11:30:40;23.60;49.50
27376;DHT22;14844;51.302;6.354;2023-06-04T11:33:06;23.90;49.20
27376;DHT22;14844;51.302;6.354;2023-06-04T11:35:39;23.90;48.60
27376;DHT22;14844;51.302;6.354;2023-06-04T11:38:05;23.90;48.60
27376;DHT22;14844;51.302;6.354;2023-06-04T11:40:30;23.90;49.20
27376;DHT22;14844;51.302;6.354;2023-06-04T11:42:56;24.00;49.40
27376;DHT22;14844;51.302;6.354;2023-06-04T11:45:21;24.10;49.50
27376;DHT22;14844;51.302;6.354;2023-06-04T11:47:48;23.90;50.10
27376;DHT22;14844;51.302;6.354;2023-06-04T11:50:14;24.00;49.40
27376;DHT22;14844;51.302;6.354;2023-06-04T11:52:40;24.10;48.90
27376;DHT22;14844;51.302;6.354;2023-06-04T11:55:10;24.10;49.10
27376;DHT22;14844;51.302;6.354;2023-06-04T11:57:36;24.10;48.60
27376;DHT22;14844;51.302;6.354;2023-06-04T12:00:02;24.10;46.80
27376;DHT22;14844;51.302;6.354;2023-06-04T12:02:27;24.20;48.70
27376;DHT22;14844;51.302;6.354;2023-06-04T12:04:53;24.30;48.20
27376;DHT22;14844;51.302;6.354;2023-06-04T12:07:21;24.20;47.10
27376;DHT22;14844;51.302;6.354;2023-06-04T12:09:50;24.20;46.90
27376;DHT22;14844;51.302;6.354;2023-06-04T12:12:20;24.30;45.60
27376;DHT22;14844;51.302;6.354;2023-06-04T12:14:46;24.50;46.80
27376;DHT22;14844;51.302;6.354;2023-06-04T12:17:12;24.50;47.30
27376;DHT22;14844;51.302;6.354;2023-06-04T12:19:47;24.40;45.20
27376;DHT22;14844;51.302;6.354;2023-06-04T12:22:16;24.30;46.50
27376;DHT22;14844;51.302;6.354;2023-06-04T12:24:55;24.30;47.20
27376;DHT22;14844;51.302;6.354;2023-06-04T12:27:21;24.20;47.40
27376;DHT22;14844;51.302;6.354;2023-06-04T12:30:04;24.10;48.30
27376;DHT22;14844;51.302;6.354;2023-06-04T12:32:30;24.20;46.40
27376;DHT22;14844;51.302;6.354;2023-06-04T12:34:55;24.40;46.00
27376;DHT22;14844;51.302;6.354;2023-06-04T12:37:21;24.50;47.20
27376;DHT22;14844;51.302;6.354;2023-06-04T12:39:47;24.40;45.60
27376;DHT22;14844;51.302;6.354;2023-06-04T12:42:13;24.20;46.70
27376;DHT22;14844;51.302;6.354;2023-06-04T12:44:39;24.30;46.40
27376;DHT22;14844;51.302;6.354;2023-06-04T12:47:05;24.60;46.90
27376;DHT22;14844;51.302;6.354;2023-06-04T12:49:30;24.50;46.70
27376;DHT22;14844;51.302;6.354;2023-06-04T12:51:56;24.50;47.50
27376;DHT22;14844;51.302;6.354;2023-06-04T12:54:21;24.50;48.80
27376;DHT22;14844;51.302;6.354;2023-06-04T12:56:47;24.30;45.70
27376;DHT22;14844;51.302;6.354;2023-06-04T12:59:13;24.10;46.10
27376;DHT22;14844;51.302;6.354;2023-06-04T13:01:38;24.10;45.30
27376;DHT22;14844;51.302;6.354;2023-06-04T13:04:04;24.10;46.50
27376;DHT22;14844;51.302;6.354;2023-06-04T13:06:29;24.00;48.20
27376;DHT22;14844;51.302;6.354;2023-06-04T13:08:56;24.10;48.40
27376;DHT22;14844;51.302;6.354;2023-06-04T13:11:21;24.20;47.10
27376;DHT22;14844;51.302;6.354;2023-06-04T13:13:48;24.10;48.30
27376;DHT22;14844;51.302;6.354;2023-06-04T13:16:13;24.00;45.80
27376;DHT22;14844;51.302;6.354;2023-06-04T13:18:39;24.10;49.40
27376;DHT22;14844;51.302;6.354;2023-06-04T13:21:04;24.30;47.70
27376;DHT22;14844;51.302;6.354;2023-06-04T13:23:30;24.40;48.20
27376;DHT22;14844;51.302;6.354;2023-06-04T13:25:55;24.40;47.60
27376;DHT22;14844;51.302;6.354;2023-06-04T13:28:21;24.50;46.80
27376;DHT22;14844;51.302;6.354;2023-06-04T13:30:48;24.60;44.30
27376;DHT22;14844;51.302;6.354;2023-06-04T13:33:15;24.70;46.80
27376;DHT22;14844;51.302;6.354;2023-06-04T13:35:41;24.80;43.60
27376;DHT22;14844;51.302;6.354;2023-06-04T13:38:07;24.90;45.40
27376;DHT22;14844;51.302;6.354;2023-06-04T13:40:36;25.00;44.50
27376;DHT22;14844;51.302;6.354;2023-06-04T13:43:02;25.10;45.90
27376;DHT22;14844;51.302;6.354;2023-06-04T13:45:27;25.10;45.90
27376;DHT22;14844;51.302;6.354;2023-06-04T13:47:53;25.10;46.10
27376;DHT22;14844;51.302;6.354;2023-06-04T13:50:18;25.10;43.10
27376;DHT22;14844;51.302;6.354;2023-06-04T13:52:44;25.00;45.30
27376;DHT22;14844;51.302;6.354;2023-06-04T13:55:09;25.00;44.00
27376;DHT22;14844;51.302;6.354;2023-06-04T13:57:35;25.00;44.50
27376;DHT22;14844;51.302;6.354;2023-06-04T14:00:00;24.80;43.90
27376;DHT22;14844;51.302;6.354;2023-06-04T14:02:26;24.50;45.00
27376;DHT22;14844;51.302;6.354;2023-06-04T14:04:52;24.30;46.20
27376;DHT22;14844;51.302;6.354;2023-06-04T14:07:18;24.30;45.00
27376;DHT22;14844;51.302;6.354;2023-06-04T14:09:43;24.30;45.70
27376;DHT22;14844;51.302;6.354;2023-06-04T14:12:09;24.50;45.40
27376;DHT22;14844;51.302;6.354;2023-06-04T14:14:34;24.80;44.40
27376;DHT22;14844;51.302;6.354;2023-06-04T14:17:03;24.90;44.90
27376;DHT22;14844;51.302;6.354;2023-06-04T14:19:29;25.10;44.60
27376;DHT22;14844;51.302;6.354;2023-06-04T14:21:54;25.40;44.30
27376;DHT22;14844;51.302;6.354;2023-06-04T14:24:20;26.30;43.90
27376;DHT22;14844;51.302;6.354;2023-06-04T14:26:47;27.50;42.80
27376;DHT22;14844;51.302;6.354;2023-06-04T14:29:12;28.00;42.40
27376;DHT22;14844;51.302;6.354;2023-06-04T14:31:38;28.50;43.70
27376;DHT22;14844;51.302;6.354;2023-06-04T14:34:04;28.30;42.40
27376;DHT22;14844;51.302;6.354;2023-06-04T14:36:30;28.20;41.20
27376;DHT22;14844;51.302;6.354;2023-06-04T14:38:56;28.60;39.60
27376;DHT22;14844;51.302;6.354;2023-06-04T14:41:22;29.10;40.90
27376;DHT22;14844;51.302;6.354;2023-06-04T14:43:47;29.50;40.50
27376;DHT22;14844;51.302;6.354;2023-06-04T14:46:13;29.30;38.10
27376;DHT22;14844;51.302;6.354;2023-06-04T14:48:38;29.90;38.40
27376;DHT22;14844;51.302;6.354;2023-06-04T14:51:04;30.10;38.10
27376;DHT22;14844;51.302;6.354;2023-06-04T14:53:29;30.50;36.90
27376;DHT22;14844;51.302;6.354;2023-06-04T14:55:55;31.10;37.20
27376;DHT22;14844;51.302;6.354;2023-06-04T14:58:21;31.50;36.70
27376;DHT22;14844;51.302;6.354;2023-06-04T15:00:46;31.60;35.30
27376;DHT22;14844;51.302;6.354;2023-06-04T15:03:12;32.20;35.70
27376;DHT22;14844;51.302;6.354;2023-06-04T15:05:37;33.10;34.30
27376;DHT22;14844;51.302;6.354;2023-06-04T15:08:04;32.60;32.20
27376;DHT22;14844;51.302;6.354;2023-06-04T15:10:29;32.80;34.00
27376;DHT22;14844;51.302;6.354;2023-06-04T15:12:55;33.20;34.20
27376;DHT22;14844;51.302;6.354;2023-06-04T15:15:21;32.90;33.10
27376;DHT22;14844;51.302;6.354;2023-06-04T15:17:47;32.20;34.70
27376;DHT22;14844;51.302;6.354;2023-06-04T15:20:12;32.70;32.30
27376;DHT22;14844;51.302;6.354;2023-06-04T15:22:38;32.80;30.30
27376;DHT22;14844;51.302;6.354;2023-06-04T15:25:03;33.70;31.10
27376;DHT22;14844;51.302;6.354;2023-06-04T15:27:29;34.40;30.40
27376;DHT22;14844;51.302;6.354;2023-06-04T15:29:55;34.40;31.10
27376;DHT22;14844;51.302;6.354;2023-06-04T15:32:20;34.20;30.30
27376;DHT22;14844;51.302;6.354;2023-06-04T15:34:46;33.80;31.20
27376;DHT22;14844;51.302;6.354;2023-06-04T15:37:12;33.70;30.50
27376;DHT22;14844;51.302;6.354;2023-06-04T15:39:37;33.30;31.30